sensor_id;sensor_type;location;lat;lon;timestamp;temperature;humidity
51902;DHT22;37929;53.218;6.548;2023-02-01T00:00:18;6.40;99.90
51902;DHT22;37929;53.218;6.548;2023-02-01T00:02:47;6.30;99.90
51902;DHT22;37929;53.218;6.548;2023-02-01T00:05:13;6.40;99.90
51902;DHT22;37929;53.218;6.548;2023-02-01T00:07:39;6.40;99.90
51902;DHT22;37929;53.218;6.548;2023-02-01T00:10:06;6.40;99.90
51902;DHT22;37929;53.218;6.548;2023-02-01T00:12:32;6.40;99.90
51902;DHT22;37929;53.218;6.548;2023-02-01T00:14:58;6.70;99.90
51902;DHT22;37929;53.218;6.548;2023-02-01T00:17:26;6.50;99.90
51902;DHT22;37929;53.218;6.548;2023-02-01T00:19:52;6.40;99.90
51902;DHT22;37929;53.218;6.548;2023-02-01T00:22:21;6.40;99.90
51902;DHT22;37929;53.218;6.548;2023-02-01T00:24:47;6.30;99.90
51902;DHT22;37929;53.218;6.548;2023-02-01T00:27:12;6.40;99.90
51902;DHT22;37929;53.218;6.548;2023-02-01T00:29:45;6.40;99.90
51902;DHT22;37929;53.218;6.548;2023-02-01T00:32:11;6.40;99.90
51902;DHT22;37929;53.218;6.548;2023-02-01T00:34:37;6.60;99.90
51902;DHT22;37929;53.218;6.548;2023-02-01T00:37:03;6.40;99.90
51902;DHT22;37929;53.218;6.548;2023-02-01T00:39:31;6.40;99.90
51902;DHT22;37929;53.218;6.548;2023-02-01T00:41:57;6.40;99.90
51902;DHT22;37929;53.218;6.548;2023-02-01T00:44:23;6.80;99.90
51902;DHT22;37929;53.218;6.548;2023-02-01T00:46:51;6.40;99.90
51902;DHT22;37929;53.218;6.548;2023-02-01T00:49:17;6.40;99.90
51902;DHT22;37929;53.218;6.548;2023-02-01T00:51:42;6.40;99.90
51902;DHT22;37929;53.218;6.548;2023-02-01T00:54:09;6.50;99.90
51902;DHT22;37929;53.218;6.548;2023-02-01T00:56:34;7.30;99.90
51902;DHT22;37929;53.218;6.548;2023-02-01T00:59:00;6.70;99.90
51902;DHT22;37929;53.218;6.548;2023-02-01T01:01:27;7.20;99.90
51902;DHT22;37929;53.218;6.548;2023-02-01T01:03:55;6.90;99.90
51902;DHT22;37929;53.218;6.548;2023-02-01T01:06:29;6.50;99.90
51902;DHT22;37929;53.218;6.548;2023-02-01T01:08:57;6.50;99.90
51902;DHT22;37929;53.218;6.548;2023-02-01T01:11:30;6.80;99.90
51902;DHT22;37929;53.218;6.548;2023-02-01T01:13:58;6.50;99.90
51902;DHT22;37929;53.218;6.548;2023-02-01T01:16:31;7.40;99.90
51902;DHT22;37929;53.218;6.548;2023-02-01T01:19:00;6.50;99.90
51902;DHT22;37929;53.218;6.548;2023-02-01T01:21:27;7.30;99.90
51902;DHT22;37929;53.218;6.548;2023-02-01T01:23:53;6.50;99.90
51902;DHT22;37929;53.218;6.548;2023-02-01T01:26:21;6.50;99.90
51902;DHT22;37929;53.218;6.548;2023-02-01T01:28:51;6.60;99.90
51902;DHT22;37929;53.218;6.548;2023-02-01T01:31:20;6.50;99.90
51902;DHT22;37929;53.218;6.548;2023-02-01T01:33:57;6.50;99.90
51902;DHT22;37929;53.218;6.548;2023-02-01T01:36:24;6.80;99.90
51902;DHT22;37929;53.218;6.548;2023-02-01T01:38:50;6.40;99.90
51902;DHT22;37929;53.218;6.548;2023-02-01T01:41:19;6.80;99.90
51902;DHT22;37929;53.218;6.548;2023-02-01T01:44:06;7.20;99.90
51902;DHT22;37929;53.218;6.548;2023-02-01T01:46:36;6.80;99.90
51902;DHT22;37929;53.218;6.548;2023-02-01T01:49:10;6.70;99.90
51902;DHT22;37929;53.218;6.548;2023-02-01T01:51:38;6.40;99.90
51902;DHT22;37929;53.218;6.548;2023-02-01T01:54:29;6.60;99.90
51902;DHT22;37929;53.218;6.548;2023-02-01T01:56:59;6.40;99.90
51902;DHT22;37929;53.218;6.548;2023-02-01T01:59:27;6.30;99.90
51902;DHT22;37929;53.218;6.548;2023-02-01T02:01:53;6.20;99.90
51902;DHT22;37929;53.218;6.548;2023-02-01T02:04:19;6.20;99.90
51902;DHT22;37929;53.218;6.548;2023-02-01T02:07:00;6.20;99.90
51902;DHT22;37929;53.218;6.548;2023-02-01T02:09:27;6.30;99.90
51902;DHT22;37929;53.218;6.548;2023-02-01T02:11:53;6.10;99.90
51902;DHT22;37929;53.218;6.548;2023-02-01T02:14:21;6.40;99.90
51902;DHT22;37929;53.218;6.548;2023-02-01T02:42:01;5.90;99.90
51902;DHT22;37929;53.218;6.548;2023-02-01T02:45:12;5.90;99.90
51902;DHT22;37929;53.218;6.548;2023-02-01T02:50:49;5.90;99.90
51902;DHT22;37929;53.218;6.548;2023-02-01T02:54:14;6.00;99.90
51902;DHT22;37929;53.218;6.548;2023-02-01T02:57:00;6.00;99.90
51902;DHT22;37929;53.218;6.548;2023-02-01T02:59:47;6.00;99.90
51902;DHT22;37929;53.218;6.548;2023-02-01T03:02:32;6.00;99.90
51902;DHT22;37929;53.218;6.548;2023-02-01T03:05:17;6.90;99.90
51902;DHT22;37929;53.218;6.548;2023-02-01T03:08:09;6.10;99.90
51902;DHT22;37929;53.218;6.548;2023-02-01T03:10:43;6.10;99.90
51902;DHT22;37929;53.218;6.548;2023-02-01T03:21:14;6.20;99.90
51902;DHT22;37929;53.218;6.548;2023-02-01T03:23:42;6.20;99.90
51902;DHT22;37929;53.218;6.548;2023-02-01T03:26:13;6.30;99.90
51902;DHT22;37929;53.218;6.548;2023-02-01T03:28:45;6.60;99.90
51902;DHT22;37929;53.218;6.548;2023-02-01T03:31:14;6.30;99.90
51902;DHT22;37929;53.218;6.548;2023-02-01T03:33:40;6.30;99.90
51902;DHT22;37929;53.218;6.548;2023-02-01T03:42:04;6.30;99.90
51902;DHT22;37929;53.218;6.548;2023-02-01T03:44:54;6.50;99.90
51902;DHT22;37929;53.218;6.548;2023-02-01T03:47:28;7.20;99.90
51902;DHT22;37929;53.218;6.548;2023-02-01T03:52:33;6.40;99.90
51902;DHT22;37929;53.218;6.548;2023-02-01T03:55:04;6.30;99.90
51902;DHT22;37929;53.218;6.548;2023-02-01T03:57:35;6.30;99.90
51902;DHT22;37929;53.218;6.548;2023-02-01T04:00:14;6.90;99.90
51902;DHT22;37929;53.218;6.548;2023-02-01T04:02:42;6.20;99.90
51902;DHT22;37929;53.218;6.548;2023-02-01T04:05:08;6.10;99.90
51902;DHT22;37929;53.218;6.548;2023-02-01T04:07:34;6.20;99.90
51902;DHT22;37929;53.218;6.548;2023-02-01T04:10:00;6.10;99.90
51902;DHT22;37929;53.218;6.548;2023-02-01T04:12:27;6.10;99.90
51902;DHT22;37929;53.218;6.548;2023-02-01T04:14:52;6.10;99.90
51902;DHT22;37929;53.218;6.548;2023-02-01T04:17:18;6.80;99.90
51902;DHT22;37929;53.218;6.548;2023-02-01T04:19:44;6.20;99.90
51902;DHT22;37929;53.218;6.548;2023-02-01T04:22:09;6.20;99.90
51902;DHT22;37929;53.218;6.548;2023-02-01T04:24:35;6.30;99.90
51902;DHT22;37929;53.218;6.548;2023-02-01T04:27:05;6.20;99.90
51902;DHT22;37929;53.218;6.548;2023-02-01T04:29:30;6.30;99.90
51902;DHT22;37929;53.218;6.548;2023-02-01T04:31:56;6.30;99.90
51902;DHT22;37929;53.218;6.548;2023-02-01T04:34:22;6.30;99.90
51902;DHT22;37929;53.218;6.548;2023-02-01T04:36:50;6.30;99.90
51902;DHT22;37929;53.218;6.548;2023-02-01T04:39:16;6.20;99.90
51902;DHT22;37929;53.218;6.548;2023-02-01T04:41:42;6.20;99.90
51902;DHT22;37929;53.218;6.548;2023-02-01T04:44:18;6.20;99.90
51902;DHT22;37929;53.218;6.548;2023-02-01T04:46:45;6.20;99.90
51902;DHT22;37929;53.218;6.548;2023-02-01T04:49:12;6.20;99.90
51902;DHT22;37929;53.218;6.548;2023-02-01T04:51:38;6.20;99.90
51902;DHT22;37929;53.218;6.548;2023-02-01T04:54:04;6.20;99.90
51902;DHT22;37929;53.218;6.548;2023-02-01T04:56:30;6.70;99.90
51902;DHT22;37929;53.218;6.548;2023-02-01T04:58:56;6.20;99.90
51902;DHT22;37929;53.218;6.548;2023-02-01T05:01:24;6.10;99.90
51902;DHT22;37929;53.218;6.548;2023-02-01T05:03:50;6.20;99.90
51902;DHT22;37929;53.218;6.548;2023-02-01T05:06:17;6.50;99.90
51902;DHT22;37929;53.218;6.548;2023-02-01T05:08:42;6.20;99.90
51902;DHT22;37929;53.218;6.548;2023-02-01T05:11:08;6.20;99.90
51902;DHT22;37929;53.218;6.548;2023-02-01T05:13:57;6.50;99.90
51902;DHT22;37929;53.218;6.548;2023-02-01T05:16:23;6.10;99.90
51902;DHT22;37929;53.218;6.548;2023-02-01T05:18:48;6.20;99.90
51902;DHT22;37929;53.218;6.548;2023-02-01T05:21:14;6.20;99.90
51902;DHT22;37929;53.218;6.548;2023-02-01T05:23:40;6.20;99.90
51902;DHT22;37929;53.218;6.548;2023-02-01T05:26:24;6.10;99.90
51902;DHT22;37929;53.218;6.548;2023-02-01T05:28:50;6.10;99.90
51902;DHT22;37929;53.218;6.548;2023-02-01T05:31:16;6.20;99.90
51902;DHT22;37929;53.218;6.548;2023-02-01T05:33:42;6.20;99.90
51902;DHT22;37929;53.218;6.548;2023-02-01T05:36:08;6.20;99.90
51902;DHT22;37929;53.218;6.548;2023-02-01T05:38:34;6.60;99.90
51902;DHT22;37929;53.218;6.548;2023-02-01T05:40:59;6.30;99.90
51902;DHT22;37929;53.218;6.548;2023-02-01T05:43:25;6.30;99.90
51902;DHT22;37929;53.218;6.548;2023-02-01T05:45:52;6.30;99.90
51902;DHT22;37929;53.218;6.548;2023-02-01T05:48:18;6.60;99.90
51902;DHT22;37929;53.218;6.548;2023-02-01T05:50:44;6.60;99.90
51902;DHT22;37929;53.218;6.548;2023-02-01T05:53:10;6.40;99.90
51902;DHT22;37929;53.218;6.548;2023-02-01T05:55:36;6.70;99.90
51902;DHT22;37929;53.218;6.548;2023-02-01T05:58:03;7.30;99.90
51902;DHT22;37929;53.218;6.548;2023-02-01T06:00:29;6.30;99.90
51902;DHT22;37929;53.218;6.548;2023-02-01T06:03:00;6.40;99.90
51902;DHT22;37929;53.218;6.548;2023-02-01T06:05:27;7.00;99.90
51902;DHT22;37929;53.218;6.548;2023-02-01T06:07:53;6.40;99.90
51902;DHT22;37929;53.218;6.548;2023-02-01T06:10:19;6.50;99.90
51902;DHT22;37929;53.218;6.548;2023-02-01T06:12:45;6.30;99.90
51902;DHT22;37929;53.218;6.548;2023-02-01T06:15:14;6.30;99.90
51902;DHT22;37929;53.218;6.548;2023-02-01T06:17:44;6.30;99.90
51902;DHT22;37929;53.218;6.548;2023-02-01T06:20:12;6.70;99.90
51902;DHT22;37929;53.218;6.548;2023-02-01T06:22:39;6.50;99.90
51902;DHT22;37929;53.218;6.548;2023-02-01T06:25:07;6.30;99.90
51902;DHT22;37929;53.218;6.548;2023-02-01T06:27:33;6.30;99.90
51902;DHT22;37929;53.218;6.548;2023-02-01T06:29:59;7.20;99.90
51902;DHT22;37929;53.218;6.548;2023-02-01T06:32:25;6.20;99.90
51902;DHT22;37929;53.218;6.548;2023-02-01T06:34:51;6.20;99.90
51902;DHT22;37929;53.218;6.548;2023-02-01T06:37:21;6.20;99.90
51902;DHT22;37929;53.218;6.548;2023-02-01T06:39:48;6.30;99.90
51902;DHT22;37929;53.218;6.548;2023-02-01T06:42:15;6.30;99.90
51902;DHT22;37929;53.218;6.548;2023-02-01T06:44:40;6.20;99.90
51902;DHT22;37929;53.218;6.548;2023-02-01T06:47:06;6.90;99.90
51902;DHT22;37929;53.218;6.548;2023-02-01T06:49:32;7.10;99.90
51902;DHT22;37929;53.218;6.548;2023-02-01T06:51:58;6.50;99.90
51902;DHT22;37929;53.218;6.548;2023-02-01T06:54:26;6.30;99.90
51902;DHT22;37929;53.218;6.548;2023-02-01T06:56:52;7.20;99.90
51902;DHT22;37929;53.218;6.548;2023-02-01T06:59:18;6.30;99.90
51902;DHT22;37929;53.218;6.548;2023-02-01T07:01:44;6.30;99.90
51902;DHT22;37929;53.218;6.548;2023-02-01T07:04:13;6.90;99.90
51902;DHT22;37929;53.218;6.548;2023-02-01T07:06:39;6.50;99.90
51902;DHT22;37929;53.218;6.548;2023-02-01T07:09:11;6.40;99.90
51902;DHT22;37929;53.218;6.548;2023-02-01T07:11:39;6.40;99.90
51902;DHT22;37929;53.218;6.548;2023-02-01T07:14:12;6.40;99.90
51902;DHT22;37929;53.218;6.548;2023-02-01T07:16:38;6.40;99.90
51902;DHT22;37929;53.218;6.548;2023-02-01T07:19:04;6.50;99.90
51902;DHT22;37929;53.218;6.548;2023-02-01T07:21:30;6.50;99.90
51902;DHT22;37929;53.218;6.548;2023-02-01T07:23:55;6.20;99.90
51902;DHT22;37929;53.218;6.548;2023-02-01T07:26:21;6.40;99.90
51902;DHT22;37929;53.218;6.548;2023-02-01T07:28:47;6.40;99.90
51902;DHT22;37929;53.218;6.548;2023-02-01T07:31:16;6.40;99.90
51902;DHT22;37929;53.218;6.548;2023-02-01T07:33:43;6.40;99.90
51902;DHT22;37929;53.218;6.548;2023-02-01T07:36:15;6.40;99.90
51902;DHT22;37929;53.218;6.548;2023-02-01T07:38:41;7.10;99.90
51902;DHT22;37929;53.218;6.548;2023-02-01T07:41:07;6.40;99.90
51902;DHT22;37929;53.218;6.548;2023-02-01T07:43:34;6.40;99.90
51902;DHT22;37929;53.218;6.548;2023-02-01T07:46:01;6.40;99.90
51902;DHT22;37929;53.218;6.548;2023-02-01T07:48:27;6.40;99.90
51902;DHT22;37929;53.218;6.548;2023-02-01T07:51:10;6.50;99.90
51902;DHT22;37929;53.218;6.548;2023-02-01T07:53:37;6.40;99.90
51902;DHT22;37929;53.218;6.548;2023-02-01T07:56:03;6.40;99.90
51902;DHT22;37929;53.218;6.548;2023-02-01T07:58:30;6.40;99.90
51902;DHT22;37929;53.218;6.548;2023-02-01T08:00:56;6.40;99.90
51902;DHT22;37929;53.218;6.548;2023-02-01T08:03:40;6.50;99.90
51902;DHT22;37929;53.218;6.548;2023-02-01T08:06:06;6.40;99.90
51902;DHT22;37929;53.218;6.548;2023-02-01T08:08:32;6.40;99.90
51902;DHT22;37929;53.218;6.548;2023-02-01T08:11:02;6.40;99.90
51902;DHT22;37929;53.218;6.548;2023-02-01T08:13:29;6.40;99.90
51902;DHT22;37929;53.218;6.548;2023-02-01T08:15:59;6.40;99.90
51902;DHT22;37929;53.218;6.548;2023-02-01T08:18:25;6.50;99.90
51902;DHT22;37929;53.218;6.548;2023-02-01T08:20:51;6.50;99.90
51902;DHT22;37929;53.218;6.548;2023-02-01T08:23:17;6.50;99.90
51902;DHT22;37929;53.218;6.548;2023-02-01T08:25:43;6.50;99.90
51902;DHT22;37929;53.218;6.548;2023-02-01T08:28:10;6.50;99.90
51902;DHT22;37929;53.218;6.548;2023-02-01T08:30:39;6.50;99.90
51902;DHT22;37929;53.218;6.548;2023-02-01T08:33:05;6.50;99.90
51902;DHT22;37929;53.218;6.548;2023-02-01T08:35:34;6.70;99.90
51902;DHT22;37929;53.218;6.548;2023-02-01T08:38:00;6.50;99.90
51902;DHT22;37929;53.218;6.548;2023-02-01T08:40:28;6.80;99.90
51902;DHT22;37929;53.218;6.548;2023-02-01T08:42:57;6.60;99.90
51902;DHT22;37929;53.218;6.548;2023-02-01T08:45:27;6.60;99.90
51902;DHT22;37929;53.218;6.548;2023-02-01T08:47:55;6.60;99.90
51902;DHT22;37929;53.218;6.548;2023-02-01T08:50:21;7.00;99.90
51902;DHT22;37929;53.218;6.548;2023-02-01T08:52:48;6.60;99.90
51902;DHT22;37929;53.218;6.548;2023-02-01T08:55:14;6.60;99.90
51902;DHT22;37929;53.218;6.548;2023-02-01T08:57:41;6.60;99.90
51902;DHT22;37929;53.218;6.548;2023-02-01T09:00:12;6.60;99.90
51902;DHT22;37929;53.218;6.548;2023-02-01T09:02:39;6.60;99.90
51902;DHT22;37929;53.218;6.548;2023-02-01T09:05:05;6.60;99.90
51902;DHT22;37929;53.218;6.548;2023-02-01T09:07:32;6.60;99.90
51902;DHT22;37929;53.218;6.548;2023-02-01T09:09:58;7.30;99.90
51902;DHT22;37929;53.218;6.548;2023-02-01T09:12:30;6.60;99.90
51902;DHT22;37929;53.218;6.548;2023-02-01T09:14:56;6.60;99.90
51902;DHT22;37929;53.218;6.548;2023-02-01T09:17:28;6.60;99.90
51902;DHT22;37929;53.218;6.548;2023-02-01T09:19:54;7.00;99.90
51902;DHT22;37929;53.218;6.548;2023-02-01T09:22:21;6.60;99.90
51902;DHT22;37929;53.218;6.548;2023-02-01T09:24:47;6.60;99.90
51902;DHT22;37929;53.218;6.548;2023-02-01T09:27:12;6.60;99.90
51902;DHT22;37929;53.218;6.548;2023-02-01T09:29:39;6.60;99.90
51902;DHT22;37929;53.218;6.548;2023-02-01T09:32:04;6.60;99.90
51902;DHT22;37929;53.218;6.548;2023-02-01T09:34:32;6.60;99.90
51902;DHT22;37929;53.218;6.548;2023-02-01T09:36:58;6.60;99.90
51902;DHT22;37929;53.218;6.548;2023-02-01T09:39:24;6.60;99.90
51902;DHT22;37929;53.218;6.548;2023-02-01T09:42:16;6.60;99.90
51902;DHT22;37929;53.218;6.548;2023-02-01T09:45:13;6.60;99.90
51902;DHT22;37929;53.218;6.548;2023-02-01T09:47:48;6.60;99.90
51902;DHT22;37929;53.218;6.548;2023-02-01T09:50:35;6.70;99.90
51902;DHT22;37929;53.218;6.548;2023-02-01T09:53:30;6.60;99.90
51902;DHT22;37929;53.218;6.548;2023-02-01T09:56:26;6.60;99.90
51902;DHT22;37929;53.218;6.548;2023-02-01T10:01:28;6.60;99.90
51902;DHT22;37929;53.218;6.548;2023-02-01T10:04:07;7.10;99.90
51902;DHT22;37929;53.218;6.548;2023-02-01T10:06:39;6.50;99.90
51902;DHT22;37929;53.218;6.548;2023-02-01T10:15:06;6.30;99.90
51902;DHT22;37929;53.218;6.548;2023-02-01T10:18:14;6.90;99.90
51902;DHT22;37929;53.218;6.548;2023-02-01T10:28:41;6.20;99.90
51902;DHT22;37929;53.218;6.548;2023-02-01T10:31:09;7.20;99.90
51902;DHT22;37929;53.218;6.548;2023-02-01T10:34:07;6.50;99.90
51902;DHT22;37929;53.218;6.548;2023-02-01T10:36:55;6.70;99.90
51902;DHT22;37929;53.218;6.548;2023-02-01T10:39:23;6.30;99.90
51902;DHT22;37929;53.218;6.548;2023-02-01T10:41:56;6.40;99.90
51902;DHT22;37929;53.218;6.548;2023-02-01T10:44:25;6.40;99.90
51902;DHT22;37929;53.218;6.548;2023-02-01T10:46:52;6.50;99.90
51902;DHT22;37929;53.218;6.548;2023-02-01T10:49:28;7.00;99.90
51902;DHT22;37929;53.218;6.548;2023-02-01T10:52:11;6.60;99.90
51902;DHT22;37929;53.218;6.548;2023-02-01T10:54:40;6.70;99.90
51902;DHT22;37929;53.218;6.548;2023-02-01T10:57:09;6.90;99.90
51902;DHT22;37929;53.218;6.548;2023-02-01T10:59:37;6.80;99.90
51902;DHT22;37929;53.218;6.548;2023-02-01T11:02:30;6.90;99.90
51902;DHT22;37929;53.218;6.548;2023-02-01T11:05:08;7.40;99.90
51902;DHT22;37929;53.218;6.548;2023-02-01T11:07:36;6.90;99.90
51902;DHT22;37929;53.218;6.548;2023-02-01T11:10:03;6.90;99.90
51902;DHT22;37929;53.218;6.548;2023-02-01T11:12:55;6.80;99.90
51902;DHT22;37929;53.218;6.548;2023-02-01T11:15:25;7.40;99.90
51902;DHT22;37929;53.218;6.548;2023-02-01T11:17:52;6.60;99.90
51902;DHT22;37929;53.218;6.548;2023-02-01T11:20:40;6.20;99.90
51902;DHT22;37929;53.218;6.548;2023-02-01T11:23:14;7.10;99.90
51902;DHT22;37929;53.218;6.548;2023-02-01T11:25:47;7.20;99.90
51902;DHT22;37929;53.218;6.548;2023-02-01T11:28:14;6.50;99.90
51902;DHT22;37929;53.218;6.548;2023-02-01T11:30:43;7.10;99.90
51902;DHT22;37929;53.218;6.548;2023-02-01T11:33:16;6.40;99.90
51902;DHT22;37929;53.218;6.548;2023-02-01T11:35:44;6.40;99.90
51902;DHT22;37929;53.218;6.548;2023-02-01T11:38:30;6.40;99.90
51902;DHT22;37929;53.218;6.548;2023-02-01T11:41:28;6.50;99.90
51902;DHT22;37929;53.218;6.548;2023-02-01T11:43:57;6.60;99.90
51902;DHT22;37929;53.218;6.548;2023-02-01T11:46:31;6.60;99.90
51902;DHT22;37929;53.218;6.548;2023-02-01T12:12:17;5.40;99.90
51902;DHT22;37929;53.218;6.548;2023-02-01T12:14:55;5.40;99.90
51902;DHT22;37929;53.218;6.548;2023-02-01T12:17:56;5.50;99.90
51902;DHT22;37929;53.218;6.548;2023-02-01T12:20:31;5.70;99.90
51902;DHT22;37929;53.218;6.548;2023-02-01T12:32:24;6.90;99.90
51902;DHT22;37929;53.218;6.548;2023-02-01T12:40:41;7.40;99.90
51902;DHT22;37929;53.218;6.548;2023-02-01T12:45:52;7.60;99.90
51902;DHT22;37929;53.218;6.548;2023-02-01T12:48:46;7.60;99.90
51902;DHT22;37929;53.218;6.548;2023-02-01T12:51:18;7.50;99.90
51902;DHT22;37929;53.218;6.548;2023-02-01T12:54:16;7.50;99.90
51902;DHT22;37929;53.218;6.548;2023-02-01T12:56:48;7.50;99.90
51902;DHT22;37929;53.218;6.548;2023-02-01T12:59:27;7.50;99.90
51902;DHT22;37929;53.218;6.548;2023-02-01T13:02:04;7.50;99.90
51902;DHT22;37929;53.218;6.548;2023-02-01T13:04:42;7.40;99.90
51902;DHT22;37929;53.218;6.548;2023-02-01T13:07:22;7.50;99.90
51902;DHT22;37929;53.218;6.548;2023-02-01T13:10:01;7.50;99.90
51902;DHT22;37929;53.218;6.548;2023-02-01T13:12:37;7.60;99.90
51902;DHT22;37929;53.218;6.548;2023-02-01T13:15:30;7.60;99.90
51902;DHT22;37929;53.218;6.548;2023-02-01T13:18:01;7.60;99.90
51902;DHT22;37929;53.218;6.548;2023-02-01T13:20:32;7.60;99.90
51902;DHT22;37929;53.218;6.548;2023-02-01T13:23:08;8.10;99.90
51902;DHT22;37929;53.218;6.548;2023-02-01T13:25:51;8.30;99.90
51902;DHT22;37929;53.218;6.548;2023-02-01T13:28:35;7.70;99.90
51902;DHT22;37929;53.218;6.548;2023-02-01T13:42:49;7.80;99.90
51902;DHT22;37929;53.218;6.548;2023-02-01T13:45:20;8.30;99.90
51902;DHT22;37929;53.218;6.548;2023-02-01T13:47:53;7.80;99.90
51902;DHT22;37929;53.218;6.548;2023-02-01T13:55:38;7.80;99.90
51902;DHT22;37929;53.218;6.548;2023-02-01T13:58:15;7.80;99.90
51902;DHT22;37929;53.218;6.548;2023-02-01T14:00:46;7.80;99.90
51902;DHT22;37929;53.218;6.548;2023-02-01T14:03:42;7.80;99.90
51902;DHT22;37929;53.218;6.548;2023-02-01T14:11:43;7.70;99.90
51902;DHT22;37929;53.218;6.548;2023-02-01T14:19:35;7.70;99.90
51902;DHT22;37929;53.218;6.548;2023-02-01T14:24:57;7.60;99.90
51902;DHT22;37929;53.218;6.548;2023-02-01T14:27:34;8.50;99.90
51902;DHT22;37929;53.218;6.548;2023-02-01T14:30:15;7.60;99.90
51902;DHT22;37929;53.218;6.548;2023-02-01T14:32:41;7.60;99.90
51902;DHT22;37929;53.218;6.548;2023-02-01T14:35:27;7.70;99.90
51902;DHT22;37929;53.218;6.548;2023-02-01T14:37:59;7.60;99.90
51902;DHT22;37929;53.218;6.548;2023-02-01T14:40:27;7.80;99.90
51902;DHT22;37929;53.218;6.548;2023-02-01T14:42:54;7.70;99.90
51902;DHT22;37929;53.218;6.548;2023-02-01T15:00:58;7.50;99.90
51902;DHT22;37929;53.218;6.548;2023-02-01T15:14:23;7.40;99.90
51902;DHT22;37929;53.218;6.548;2023-02-01T15:16:49;7.40;99.90
51902;DHT22;37929;53.218;6.548;2023-02-01T15:19:24;7.60;99.90
51902;DHT22;37929;53.218;6.548;2023-02-01T15:21:54;7.50;99.90
51902;DHT22;37929;53.218;6.548;2023-02-01T15:26:53;7.40;99.90
51902;DHT22;37929;53.218;6.548;2023-02-01T15:29:23;7.50;99.90
51902;DHT22;37929;53.218;6.548;2023-02-01T15:31:53;7.50;99.90
51902;DHT22;37929;53.218;6.548;2023-02-01T15:34:21;7.50;99.90
51902;DHT22;37929;53.218;6.548;2023-02-01T15:36:47;7.00;99.90
51902;DHT22;37929;53.218;6.548;2023-02-01T15:39:32;7.50;99.90
51902;DHT22;37929;53.218;6.548;2023-02-01T15:42:08;7.40;99.90
51902;DHT22;37929;53.218;6.548;2023-02-01T15:44:45;7.60;99.90
51902;DHT22;37929;53.218;6.548;2023-02-01T15:47:26;7.60;99.90
51902;DHT22;37929;53.218;6.548;2023-02-01T15:49:55;7.90;99.90
51902;DHT22;37929;53.218;6.548;2023-02-01T15:55:00;7.40;99.90
51902;DHT22;37929;53.218;6.548;2023-02-01T15:57:30;7.70;99.90
51902;DHT22;37929;53.218;6.548;2023-02-01T16:00:08;7.30;99.90
51902;DHT22;37929;53.218;6.548;2023-02-01T16:03:22;7.30;99.90
51902;DHT22;37929;53.218;6.548;2023-02-01T16:05:59;7.20;99.90
51902;DHT22;37929;53.218;6.548;2023-02-01T16:08:30;7.20;99.90
51902;DHT22;37929;53.218;6.548;2023-02-01T16:13:35;7.20;99.90
51902;DHT22;37929;53.218;6.548;2023-02-01T16:16:02;7.10;99.90
51902;DHT22;37929;53.218;6.548;2023-02-01T16:18:29;7.10;99.90
51902;DHT22;37929;53.218;6.548;2023-02-01T16:20:55;7.10;99.90
51902;DHT22;37929;53.218;6.548;2023-02-01T16:23:20;7.00;99.90
51902;DHT22;37929;53.218;6.548;2023-02-01T16:25:49;7.00;99.90
51902;DHT22;37929;53.218;6.548;2023-02-01T16:28:15;7.00;99.90
51902;DHT22;37929;53.218;6.548;2023-02-01T16:30:40;6.90;99.90
51902;DHT22;37929;53.218;6.548;2023-02-01T16:33:11;6.90;99.90
51902;DHT22;37929;53.218;6.548;2023-02-01T16:35:40;6.90;99.90
51902;DHT22;37929;53.218;6.548;2023-02-01T16:38:12;6.90;99.90
51902;DHT22;37929;53.218;6.548;2023-02-01T16:40:42;6.90;99.90
51902;DHT22;37929;53.218;6.548;2023-02-01T16:43:20;6.90;99.90
51902;DHT22;37929;53.218;6.548;2023-02-01T16:45:48;6.80;99.90
51902;DHT22;37929;53.218;6.548;2023-02-01T16:48:33;6.80;99.90
51902;DHT22;37929;53.218;6.548;2023-02-01T16:51:09;6.80;99.90
51902;DHT22;37929;53.218;6.548;2023-02-01T16:53:36;6.80;99.90
51902;DHT22;37929;53.218;6.548;2023-02-01T16:56:09;6.80;99.90
51902;DHT22;37929;53.218;6.548;2023-02-01T16:58:38;6.70;99.90
51902;DHT22;37929;53.218;6.548;2023-02-01T17:01:07;6.70;99.90
51902;DHT22;37929;53.218;6.548;2023-02-01T17:03:35;6.70;99.90
51902;DHT22;37929;53.218;6.548;2023-02-01T17:06:01;6.70;99.90
51902;DHT22;37929;53.218;6.548;2023-02-01T17:08:33;7.20;99.90
51902;DHT22;37929;53.218;6.548;2023-02-01T17:10:59;6.60;99.90
51902;DHT22;37929;53.218;6.548;2023-02-01T17:13:25;6.70;99.90
51902;DHT22;37929;53.218;6.548;2023-02-01T17:18:20;6.70;99.90
51902;DHT22;37929;53.218;6.548;2023-02-01T17:20:51;6.70;99.90
51902;DHT22;37929;53.218;6.548;2023-02-01T17:23:19;7.10;99.90
51902;DHT22;37929;53.218;6.548;2023-02-01T17:25:45;6.70;99.90
51902;DHT22;37929;53.218;6.548;2023-02-01T17:28:12;6.70;99.90
51902;DHT22;37929;53.218;6.548;2023-02-01T17:30:41;6.70;99.90
51902;DHT22;37929;53.218;6.548;2023-02-01T17:33:29;6.60;99.90
51902;DHT22;37929;53.218;6.548;2023-02-01T17:35:56;6.60;99.90
51902;DHT22;37929;53.218;6.548;2023-02-01T17:38:23;6.60;99.90
51902;DHT22;37929;53.218;6.548;2023-02-01T17:40:49;7.20;99.90
51902;DHT22;37929;53.218;6.548;2023-02-01T17:43:18;6.60;99.90
51902;DHT22;37929;53.218;6.548;2023-02-01T17:45:47;6.60;99.90
51902;DHT22;37929;53.218;6.548;2023-02-01T17:48:18;6.60;99.90
51902;DHT22;37929;53.218;6.548;2023-02-01T17:50:44;6.80;99.90
51902;DHT22;37929;53.218;6.548;2023-02-01T17:53:15;7.00;99.90
51902;DHT22;37929;53.218;6.548;2023-02-01T17:55:44;6.60;99.90
51902;DHT22;37929;53.218;6.548;2023-02-01T17:58:11;6.60;99.90
51902;DHT22;37929;53.218;6.548;2023-02-01T18:00:38;6.80;99.90
51902;DHT22;37929;53.218;6.548;2023-02-01T18:03:04;6.60;99.90
51902;DHT22;37929;53.218;6.548;2023-02-01T18:05:41;6.60;99.90
51902;DHT22;37929;53.218;6.548;2023-02-01T18:08:08;6.60;99.90
51902;DHT22;37929;53.218;6.548;2023-02-01T18:10:34;6.60;99.90
51902;DHT22;37929;53.218;6.548;2023-02-01T18:13:04;6.50;99.90
51902;DHT22;37929;53.218;6.548;2023-02-01T18:15:30;7.20;99.90
51902;DHT22;37929;53.218;6.548;2023-02-01T18:17:56;6.60;99.90
51902;DHT22;37929;53.218;6.548;2023-02-01T18:20:24;6.60;99.90
51902;DHT22;37929;53.218;6.548;2023-02-01T18:22:51;6.60;99.90
51902;DHT22;37929;53.218;6.548;2023-02-01T18:27:50;6.60;99.90
51902;DHT22;37929;53.218;6.548;2023-02-01T18:30:30;6.60;99.90
51902;DHT22;37929;53.218;6.548;2023-02-01T18:33:00;6.60;99.90
51902;DHT22;37929;53.218;6.548;2023-02-01T18:35:27;6.60;99.90
51902;DHT22;37929;53.218;6.548;2023-02-01T18:37:54;6.60;99.90
51902;DHT22;37929;53.218;6.548;2023-02-01T18:40:27;6.60;99.90
51902;DHT22;37929;53.218;6.548;2023-02-01T18:42:59;6.60;99.90
51902;DHT22;37929;53.218;6.548;2023-02-01T18:48:03;6.40;99.90
51902;DHT22;37929;53.218;6.548;2023-02-01T18:50:37;6.40;99.90
51902;DHT22;37929;53.218;6.548;2023-02-01T18:53:06;6.40;99.90
51902;DHT22;37929;53.218;6.548;2023-02-01T18:55:32;6.90;99.90
51902;DHT22;37929;53.218;6.548;2023-02-01T18:57:59;6.50;99.90
51902;DHT22;37929;53.218;6.548;2023-02-01T19:00:25;6.40;99.90
51902;DHT22;37929;53.218;6.548;2023-02-01T19:02:51;6.90;99.90